createdAt,value
2023-01-13T00:01:24.542Z,7.70
2023-01-13T00:03:51.194Z,7.70
2023-01-13T00:06:20.569Z,7.70
2023-01-13T00:08:50.988Z,7.80
2023-01-13T00:11:18.314Z,7.80
2023-01-13T00:13:44.908Z,7.80
2023-01-13T00:16:14.192Z,7.80
2023-01-13T00:18:40.930Z,7.70
2023-01-13T00:21:10.575Z,7.70
2023-01-13T00:23:37.144Z,7.60
2023-01-13T00:26:07.576Z,7.70
2023-01-13T00:28:34.152Z,7.70
2023-01-13T00:31:08.182Z,7.70
2023-01-13T00:33:35.366Z,7.70
2023-01-13T00:36:03.232Z,7.60
2023-01-13T00:38:31.698Z,7.70
2023-01-13T00:41:00.123Z,7.80
2023-01-13T00:43:28.081Z,7.70
2023-01-13T00:45:55.222Z,7.70
2023-01-13T00:48:23.325Z,7.70
2023-01-13T00:51:01.731Z,7.70
2023-01-13T00:53:29.687Z,7.80
2023-01-13T00:56:12.480Z,7.80
2023-01-13T00:58:39.055Z,7.80
2023-01-13T01:01:18.097Z,7.80
2023-01-13T01:03:46.946Z,7.80
2023-01-13T01:06:20.315Z,7.80
2023-01-13T01:08:47.114Z,7.90
2023-01-13T01:11:16.407Z,7.80
2023-01-13T01:13:43.556Z,7.90
2023-01-13T01:16:15.866Z,7.90
2023-01-13T01:18:44.736Z,7.90
2023-01-13T01:21:12.424Z,7.90
2023-01-13T01:23:39.466Z,7.90
2023-01-13T01:26:10.487Z,7.90
2023-01-13T01:28:37.207Z,7.90
2023-01-13T01:31:16.892Z,7.90
2023-01-13T01:33:43.456Z,7.90
2023-01-13T01:36:12.170Z,8.00
2023-01-13T01:38:38.974Z,7.90
2023-01-13T01:41:06.037Z,7.90
2023-01-13T01:43:50.005Z,7.90
2023-01-13T01:46:16.608Z,8.00
2023-01-13T01:48:43.225Z,8.00
2023-01-13T01:51:12.980Z,8.00
2023-01-13T01:53:40.313Z,8.00
2023-01-13T01:56:09.029Z,8.00
2023-01-13T01:58:41.265Z,8.00
2023-01-13T02:01:08.691Z,8.10
2023-01-13T02:03:41.682Z,8.10
2023-01-13T02:06:08.537Z,8.10
2023-01-13T02:08:37.154Z,8.10
2023-01-13T02:11:03.765Z,8.10
2023-01-13T02:13:30.442Z,8.10
2023-01-13T02:16:17.025Z,8.10
2023-01-13T02:18:55.259Z,8.20
2023-01-13T02:21:31.603Z,8.20
2023-01-13T02:24:18.295Z,8.20
2023-01-13T02:27:09.372Z,8.20
2023-01-13T02:30:03.805Z,8.30
2023-01-13T02:32:39.762Z,8.30
2023-01-13T02:35:33.217Z,8.30
2023-01-13T02:38:01.860Z,8.30
2023-01-13T02:40:40.580Z,8.20
2023-01-13T02:43:33.487Z,8.20
2023-01-13T02:46:16.351Z,8.20
2023-01-13T02:48:45.758Z,8.30
2023-01-13T02:51:17.228Z,8.30
2023-01-13T02:53:50.263Z,8.30
2023-01-13T02:56:17.964Z,8.30
2023-01-13T02:58:46.653Z,8.30
2023-01-13T03:01:13.347Z,8.30
2023-01-13T03:03:40.011Z,8.30
2023-01-13T03:06:44.006Z,8.30
2023-01-13T03:09:22.647Z,8.30
2023-01-13T03:12:17.558Z,8.30
2023-01-13T03:15:20.512Z,8.30
2023-01-13T03:18:06.147Z,8.40
2023-01-13T03:20:39.410Z,8.30
2023-01-13T03:23:07.972Z,8.30
2023-01-13T03:25:40.450Z,8.30
2023-01-13T03:28:15.280Z,8.30
2023-01-13T03:30:48.487Z,8.30
2023-01-13T03:33:19.984Z,8.40
2023-01-13T03:35:52.831Z,8.40
2023-01-13T03:40:53.443Z,8.30
2023-01-13T03:43:25.245Z,8.30
2023-01-13T03:45:57.202Z,8.30
2023-01-13T03:48:27.521Z,8.30
2023-01-13T03:50:57.328Z,8.20
2023-01-13T03:53:36.179Z,8.20
2023-01-13T03:56:15.989Z,8.20
2023-01-13T03:58:46.027Z,8.20
2023-01-13T04:01:24.367Z,8.20
2023-01-13T04:04:03.438Z,8.20
2023-01-13T04:06:54.041Z,8.20
2023-01-13T04:09:33.209Z,8.30
2023-01-13T04:12:30.744Z,8.20
2023-01-13T04:14:57.339Z,8.30
2023-01-13T04:17:24.075Z,8.30
2023-01-13T04:19:50.636Z,8.30
2023-01-13T04:22:17.258Z,8.30
2023-01-13T04:24:43.792Z,8.30
2023-01-13T04:27:10.347Z,8.30
2023-01-13T04:29:36.885Z,8.30
2023-01-13T04:32:03.467Z,8.40
2023-01-13T04:34:30.051Z,8.40
2023-01-13T04:36:56.604Z,8.40
2023-01-13T04:39:23.196Z,8.40
2023-01-13T04:41:49.745Z,8.40
2023-01-13T04:44:16.314Z,8.40
2023-01-13T04:46:42.879Z,8.40
2023-01-13T04:49:09.442Z,8.50
2023-01-13T04:51:36.049Z,8.50
2023-01-13T04:54:02.679Z,8.50
2023-01-13T04:56:29.272Z,8.50
2023-01-13T04:58:55.887Z,8.50
2023-01-13T05:01:22.631Z,8.50
2023-01-13T05:03:49.274Z,8.60
2023-01-13T05:06:15.822Z,8.60
2023-01-13T05:08:42.372Z,8.60
2023-01-13T05:11:08.944Z,8.60
2023-01-13T05:13:35.519Z,8.60
2023-01-13T05:16:02.194Z,8.60
2023-01-13T05:18:30.623Z,8.70
2023-01-13T05:20:57.269Z,8.80
2023-01-13T05:23:23.846Z,8.70
2023-01-13T05:25:50.507Z,8.80
2023-01-13T05:28:17.133Z,8.80
2023-01-13T05:30:45.532Z,8.90
2023-01-13T05:33:14.655Z,8.90
2023-01-13T05:35:42.755Z,8.90
2023-01-13T05:38:10.076Z,8.90
2023-01-13T05:40:38.779Z,8.90
2023-01-13T05:43:13.889Z,8.90
2023-01-13T05:45:40.462Z,8.90
2023-01-13T05:48:07.043Z,8.90
2023-01-13T05:50:33.613Z,8.90
2023-01-13T05:53:00.151Z,8.90
2023-01-13T05:55:26.700Z,8.90
2023-01-13T05:57:53.261Z,8.90
2023-01-13T06:00:20.181Z,8.90
2023-01-13T06:02:46.759Z,8.90
2023-01-13T06:05:13.379Z,8.90
2023-01-13T06:07:39.937Z,8.90
2023-01-13T06:10:07.159Z,8.90
2023-01-13T06:12:33.751Z,8.90
2023-01-13T06:15:00.471Z,8.80
2023-01-13T06:17:27.111Z,8.80
2023-01-13T06:19:53.674Z,8.80
2023-01-13T06:22:30.877Z,8.80
2023-01-13T06:24:57.745Z,8.80
2023-01-13T06:27:24.718Z,8.80
2023-01-13T06:29:51.319Z,8.80
2023-01-13T06:32:34.568Z,8.80
2023-01-13T06:35:07.620Z,8.80
2023-01-13T06:37:35.781Z,8.80
2023-01-13T06:40:05.528Z,8.80
2023-01-13T06:42:36.071Z,8.80
2023-01-13T06:45:03.173Z,8.80
2023-01-13T06:47:29.763Z,8.80
2023-01-13T06:49:56.324Z,8.80
2023-01-13T06:52:22.962Z,8.70
2023-01-13T06:54:49.516Z,8.70
2023-01-13T06:57:16.071Z,8.70
2023-01-13T06:59:42.629Z,8.70
2023-01-13T07:02:09.326Z,8.80
2023-01-13T07:04:36.023Z,8.80
2023-01-13T07:07:02.587Z,8.80
2023-01-13T07:09:29.150Z,8.90
2023-01-13T07:11:55.743Z,8.80
2023-01-13T07:14:22.305Z,8.90
2023-01-13T07:16:48.936Z,8.90
2023-01-13T07:19:15.543Z,8.90
2023-01-13T07:21:42.092Z,8.90
2023-01-13T07:24:08.676Z,8.90
2023-01-13T07:26:35.247Z,8.90
2023-01-13T07:29:01.808Z,8.90
2023-01-13T07:31:28.411Z,8.90
2023-01-13T07:33:54.976Z,8.90
2023-01-13T07:36:21.540Z,8.90
2023-01-13T07:38:48.098Z,8.90
2023-01-13T07:41:15.465Z,8.90
2023-01-13T07:43:42.049Z,8.90
2023-01-13T07:46:08.633Z,8.90
2023-01-13T07:48:35.399Z,8.90
2023-01-13T07:51:07.526Z,8.90
2023-01-13T07:53:35.037Z,8.90
2023-01-13T07:56:03.223Z,8.90
2023-01-13T07:58:30.309Z,8.90
2023-01-13T08:00:57.183Z,8.90
2023-01-13T08:03:25.274Z,8.90
2023-01-13T08:05:52.168Z,8.90
2023-01-13T08:08:19.056Z,8.90
2023-01-13T08:10:45.691Z,8.90
2023-01-13T08:13:15.327Z,8.90
2023-01-13T08:15:41.989Z,8.90
2023-01-13T08:18:08.565Z,9.00
2023-01-13T08:20:35.185Z,9.00
2023-01-13T08:23:01.791Z,8.90
2023-01-13T08:25:30.045Z,8.90
2023-01-13T08:27:56.736Z,9.00
2023-01-13T08:30:23.366Z,9.00
2023-01-13T08:32:50.448Z,9.00
2023-01-13T08:35:17.630Z,9.00
2023-01-13T08:37:45.359Z,9.10
2023-01-13T08:40:12.711Z,9.10
2023-01-13T08:42:39.283Z,9.10
2023-01-13T08:45:07.267Z,9.10
2023-01-13T08:47:33.893Z,9.10
2023-01-13T08:50:00.656Z,9.10
2023-01-13T08:52:28.586Z,9.10
2023-01-13T08:54:55.203Z,9.10
2023-01-13T08:57:21.888Z,9.20
2023-01-13T08:59:48.547Z,9.10
2023-01-13T09:02:20.552Z,9.10
2023-01-13T09:04:47.652Z,9.20
2023-01-13T09:07:14.659Z,9.20
2023-01-13T09:09:41.262Z,9.10
2023-01-13T09:12:11.730Z,9.20
2023-01-13T09:14:38.779Z,9.20
2023-01-13T09:17:05.902Z,9.20
2023-01-13T09:19:32.564Z,9.20
2023-01-13T09:21:59.146Z,9.20
2023-01-13T09:24:26.099Z,9.20
2023-01-13T09:26:52.683Z,9.20
2023-01-13T09:29:19.314Z,9.20
2023-01-13T09:31:46.156Z,9.20
2023-01-13T09:34:18.705Z,9.20
2023-01-13T09:36:45.359Z,9.30
2023-01-13T09:39:11.934Z,9.30
2023-01-13T09:41:43.869Z,9.30
2023-01-13T09:44:18.249Z,9.30
2023-01-13T09:46:51.079Z,9.30
2023-01-13T09:49:34.323Z,9.30
2023-01-13T09:52:09.999Z,9.40
2023-01-13T09:54:45.118Z,9.40
2023-01-13T09:57:16.968Z,9.40
2023-01-13T09:59:44.388Z,9.50
2023-01-13T10:02:22.893Z,9.50
2023-01-13T10:05:34.487Z,9.60
2023-01-13T10:08:11.592Z,9.70
2023-01-13T10:10:45.965Z,9.80
2023-01-13T10:13:22.791Z,9.80
2023-01-13T10:16:10.181Z,9.90
2023-01-13T10:18:52.147Z,10.00
2023-01-13T10:21:40.038Z,10.20
2023-01-13T10:24:20.332Z,10.30
2023-01-13T10:26:59.418Z,10.20
2023-01-13T10:29:28.372Z,10.20
2023-01-13T10:31:57.202Z,10.10
2023-01-13T10:34:24.875Z,10.10
2023-01-13T10:36:56.746Z,10.00
2023-01-13T10:39:23.450Z,10.10
2023-01-13T10:42:20.611Z,10.10
2023-01-13T10:44:59.012Z,10.00
2023-01-13T10:47:30.878Z,10.00
2023-01-13T10:50:08.668Z,10.00
2023-01-13T10:52:38.988Z,10.10
2023-01-13T10:55:27.101Z,10.10
2023-01-13T10:57:53.719Z,10.10
2023-01-13T11:00:32.193Z,10.10
2023-01-13T11:03:23.974Z,10.10
2023-01-13T11:05:56.521Z,10.10
2023-01-13T11:08:26.370Z,10.10
2023-01-13T11:10:58.537Z,10.00
2023-01-13T11:13:41.058Z,10.00
2023-01-13T11:16:15.395Z,10.00
2023-01-13T11:19:11.917Z,10.00
2023-01-13T11:21:41.550Z,10.00
2023-01-13T11:24:21.187Z,10.10
2023-01-13T11:27:04.164Z,10.00
2023-01-13T11:29:39.885Z,10.00
2023-01-13T11:32:19.871Z,10.10
2023-01-13T11:34:50.657Z,10.10
2023-01-13T11:37:27.862Z,10.10
2023-01-13T11:39:57.153Z,10.10
2023-01-13T11:42:38.512Z,10.10
2023-01-13T11:45:17.701Z,10.00
2023-01-13T11:47:51.082Z,10.00
2023-01-13T11:50:49.115Z,10.00
2023-01-13T11:53:52.177Z,9.90
2023-01-13T11:56:55.383Z,9.90
2023-01-13T11:59:52.794Z,10.00
2023-01-13T12:02:36.470Z,10.00
2023-01-13T12:05:09.222Z,10.00
2023-01-13T12:07:38.620Z,10.10
2023-01-13T12:10:34.198Z,10.10
2023-01-13T12:13:14.848Z,10.10
2023-01-13T12:15:54.647Z,10.00
2023-01-13T12:18:32.375Z,10.00
2023-01-13T12:21:01.640Z,10.00
2023-01-13T12:23:49.946Z,10.00
2023-01-13T12:26:17.099Z,10.00
2023-01-13T12:28:49.303Z,10.00
2023-01-13T12:31:18.122Z,10.00
2023-01-13T12:34:10.566Z,9.90
2023-01-13T12:36:57.961Z,9.90
2023-01-13T12:39:59.568Z,9.90
2023-01-13T12:42:50.676Z,9.90
2023-01-13T12:45:23.916Z,9.90
2023-01-13T12:47:50.582Z,10.00
2023-01-13T12:50:23.336Z,10.00
2023-01-13T12:52:51.840Z,10.10
2023-01-13T12:55:23.371Z,10.10
2023-01-13T12:57:57.117Z,10.20
2023-01-13T13:00:23.952Z,10.20
2023-01-13T13:03:11.358Z,10.10
2023-01-13T13:06:05.703Z,10.10
2023-01-13T13:09:03.728Z,10.00
2023-01-13T13:11:45.713Z,10.10
2023-01-13T13:14:13.808Z,10.20
2023-01-13T13:16:51.283Z,10.30
2023-01-13T13:19:17.923Z,10.40
2023-01-13T13:22:12.591Z,10.40
2023-01-13T13:24:40.715Z,10.50
2023-01-13T13:27:27.932Z,10.40
2023-01-13T13:30:14.461Z,10.10
2023-01-13T13:32:40.974Z,9.40
2023-01-13T13:35:41.007Z,8.70
2023-01-13T13:38:37.064Z,8.30
2023-01-13T13:41:22.154Z,8.10
2023-01-13T13:43:48.932Z,7.80
2023-01-13T13:46:30.674Z,7.70
2023-01-13T13:48:57.249Z,7.70
2023-01-13T13:51:39.253Z,7.50
2023-01-13T13:54:11.309Z,7.40
2023-01-13T13:56:43.221Z,7.20
2023-01-13T13:59:16.986Z,7.00
2023-01-13T14:01:45.628Z,6.80
2023-01-13T14:04:22.119Z,6.70
2023-01-13T14:07:03.856Z,6.80
2023-01-13T14:09:41.727Z,6.80
2023-01-13T14:12:24.279Z,6.70
2023-01-13T14:14:51.427Z,6.70
2023-01-13T14:17:25.464Z,6.70
2023-01-13T14:20:01.716Z,6.70
2023-01-13T14:22:28.333Z,6.70
2023-01-13T14:24:54.890Z,6.70
2023-01-13T14:27:22.528Z,6.70
2023-01-13T14:29:52.125Z,6.70
2023-01-13T14:32:21.622Z,6.70
2023-01-13T14:34:48.286Z,6.70
2023-01-13T14:37:27.991Z,6.60
2023-01-13T14:39:54.614Z,6.50
2023-01-13T14:42:21.185Z,6.50
2023-01-13T14:44:50.154Z,6.50
2023-01-13T14:47:26.359Z,6.50
2023-01-13T14:50:16.223Z,6.50
2023-01-13T14:52:51.492Z,6.50
2023-01-13T14:55:22.536Z,6.40
2023-01-13T14:57:49.338Z,6.40
2023-01-13T15:00:15.959Z,6.40
2023-01-13T15:02:42.559Z,6.30
2023-01-13T15:05:18.150Z,6.30
2023-01-13T15:07:53.057Z,6.30
2023-01-13T15:10:25.947Z,6.20
2023-01-13T15:12:55.487Z,6.20
2023-01-13T15:15:27.102Z,6.20
2023-01-13T15:17:53.843Z,6.20
2023-01-13T15:20:22.717Z,6.10
2023-01-13T15:22:50.516Z,6.00
2023-01-13T15:25:18.161Z,6.00
2023-01-13T15:27:45.992Z,6.00
2023-01-13T15:30:22.338Z,6.00
2023-01-13T15:32:48.899Z,6.00
2023-01-13T15:35:16.657Z,5.90
2023-01-13T15:37:44.538Z,5.90
2023-01-13T15:40:16.894Z,5.90
2023-01-13T15:42:43.512Z,5.80
2023-01-13T15:45:13.325Z,5.80
2023-01-13T15:47:39.945Z,5.80
2023-01-13T15:50:09.764Z,5.80
2023-01-13T15:52:36.341Z,5.70
2023-01-13T15:55:03.007Z,5.60
2023-01-13T15:57:33.695Z,5.50
2023-01-13T16:00:20.820Z,5.50
2023-01-13T16:02:48.471Z,5.30
2023-01-13T16:05:15.609Z,5.30
2023-01-13T16:07:42.213Z,5.30
2023-01-13T16:10:24.103Z,5.20
2023-01-13T16:12:50.662Z,5.30
2023-01-13T16:15:18.911Z,5.20
2023-01-13T16:17:46.458Z,5.10
2023-01-13T16:20:17.372Z,5.10
2023-01-13T16:22:44.401Z,5.10
2023-01-13T16:25:25.885Z,5.10
2023-01-13T16:27:53.264Z,5.00
2023-01-13T16:30:31.852Z,5.00
2023-01-13T16:32:58.938Z,5.00
2023-01-13T16:35:26.316Z,4.90
2023-01-13T16:37:52.894Z,4.90
2023-01-13T16:40:25.638Z,4.90
2023-01-13T16:42:52.694Z,5.00
2023-01-13T16:45:19.646Z,5.00
2023-01-13T16:47:46.490Z,5.00
2023-01-13T16:50:27.566Z,5.00
2023-01-13T16:52:54.250Z,5.00
2023-01-13T16:55:20.824Z,5.10
2023-01-13T16:57:47.388Z,5.20
2023-01-13T17:00:14.525Z,5.20
2023-01-13T17:02:41.128Z,5.20
2023-01-13T17:05:10.197Z,5.20
2023-01-13T17:07:36.752Z,5.30
2023-01-13T17:10:04.733Z,5.30
2023-01-13T17:12:31.334Z,5.40
2023-01-13T17:14:57.888Z,5.40
2023-01-13T17:17:27.272Z,5.50
2023-01-13T17:19:54.156Z,5.50
2023-01-13T17:22:21.923Z,5.50
2023-01-13T17:24:48.923Z,5.60
2023-01-13T17:27:15.513Z,5.60
2023-01-13T17:29:42.044Z,5.70
2023-01-13T17:32:14.172Z,5.70
2023-01-13T17:34:40.743Z,5.60
2023-01-13T17:37:08.151Z,5.60
2023-01-13T17:39:34.742Z,5.60
2023-01-13T17:42:01.311Z,5.60
2023-01-13T17:44:27.879Z,5.60
2023-01-13T17:46:54.440Z,5.50
2023-01-13T17:49:21.013Z,5.60
2023-01-13T17:51:48.858Z,5.60
2023-01-13T17:54:15.605Z,5.60
2023-01-13T17:56:42.684Z,5.60
2023-01-13T17:59:14.025Z,5.50
2023-01-13T18:01:40.965Z,5.60
2023-01-13T18:04:09.195Z,5.60
2023-01-13T18:06:35.802Z,5.60
2023-01-13T18:09:02.380Z,5.60
2023-01-13T18:11:28.914Z,5.60
2023-01-13T18:13:55.839Z,5.60
2023-01-13T18:16:23.374Z,5.60
2023-01-13T18:18:52.153Z,5.60
2023-01-13T18:21:18.896Z,5.60
2023-01-13T18:23:45.552Z,5.60
2023-01-13T18:26:19.942Z,5.60
2023-01-13T18:28:46.496Z,5.70
2023-01-13T18:31:13.297Z,5.70
2023-01-13T18:33:39.885Z,5.70
2023-01-13T18:36:07.786Z,5.70
2023-01-13T18:38:34.351Z,5.60
2023-01-13T18:41:00.933Z,5.70
2023-01-13T18:43:27.497Z,5.70
2023-01-13T18:45:54.096Z,5.80
2023-01-13T18:48:20.653Z,5.80
2023-01-13T18:50:47.229Z,5.80
2023-01-13T18:53:13.760Z,5.80
2023-01-13T18:55:40.331Z,5.80
2023-01-13T18:58:06.901Z,5.80
2023-01-13T19:00:33.423Z,5.80
2023-01-13T19:05:33.451Z,5.70
2023-01-13T19:08:00.025Z,5.70
2023-01-13T19:10:26.608Z,5.60
2023-01-13T19:12:53.144Z,5.60
2023-01-13T19:15:19.699Z,5.60
2023-01-13T19:17:46.291Z,5.50
2023-01-13T19:20:12.827Z,5.50
2023-01-13T19:22:39.378Z,5.50
2023-01-13T19:25:06.086Z,5.40
2023-01-13T19:27:32.769Z,5.40
2023-01-13T19:29:59.433Z,5.40
2023-01-13T19:32:26.845Z,5.40
2023-01-13T19:34:53.509Z,5.40
2023-01-13T19:37:20.100Z,5.40
2023-01-13T19:39:46.861Z,5.40
2023-01-13T19:42:13.898Z,5.40
2023-01-13T19:44:40.600Z,5.40
2023-01-13T19:47:07.159Z,5.40
2023-01-13T19:49:33.798Z,5.40
2023-01-13T19:52:00.348Z,5.50
2023-01-13T19:54:26.981Z,5.50
2023-01-13T19:56:53.638Z,5.50
2023-01-13T19:59:20.226Z,5.50
2023-01-13T20:01:46.798Z,5.50
2023-01-13T20:04:13.354Z,5.50
2023-01-13T20:06:41.065Z,5.50
2023-01-13T20:09:07.829Z,5.60
2023-01-13T20:11:34.365Z,5.60
2023-01-13T20:14:01.554Z,5.70
2023-01-13T20:16:29.698Z,5.70
2023-01-13T20:18:56.719Z,5.70
2023-01-13T20:21:23.601Z,5.70
2023-01-13T20:23:52.286Z,5.70
2023-01-13T20:26:20.438Z,5.60
2023-01-13T20:28:47.524Z,5.60
2023-01-13T20:31:14.950Z,5.60
2023-01-13T20:33:42.250Z,5.60
2023-01-13T20:36:23.511Z,5.60
2023-01-13T20:38:50.076Z,5.50
2023-01-13T20:41:16.667Z,5.60
2023-01-13T20:43:43.209Z,5.50
2023-01-13T20:46:09.735Z,5.60
2023-01-13T20:48:36.602Z,5.60
2023-01-13T20:51:03.211Z,5.60
2023-01-13T20:53:29.769Z,5.60
2023-01-13T20:55:56.323Z,5.50
2023-01-13T20:58:22.898Z,5.60
2023-01-13T21:00:49.510Z,5.50
2023-01-13T21:03:16.048Z,5.50
2023-01-13T21:05:42.603Z,5.50
2023-01-13T21:08:09.150Z,5.40
2023-01-13T21:10:35.695Z,5.40
2023-01-13T21:13:02.325Z,5.40
2023-01-13T21:15:28.893Z,5.20
2023-01-13T21:17:55.431Z,5.30
2023-01-13T21:20:22.158Z,5.20
2023-01-13T21:22:49.466Z,5.10
2023-01-13T21:25:17.652Z,5.10
2023-01-13T21:27:44.292Z,5.10
2023-01-13T21:30:11.929Z,5.00
2023-01-13T21:32:38.488Z,5.00
2023-01-13T21:35:05.355Z,5.00
2023-01-13T21:37:31.960Z,5.00
2023-01-13T21:39:58.485Z,4.90
2023-01-13T21:42:25.031Z,4.80
2023-01-13T21:44:51.583Z,4.80
2023-01-13T21:47:19.127Z,4.80
2023-01-13T21:49:45.758Z,4.70
2023-01-13T21:52:13.750Z,4.60
2023-01-13T21:54:40.411Z,4.60
2023-01-13T21:57:06.967Z,4.60
2023-01-13T21:59:33.519Z,4.60
2023-01-13T22:02:23.225Z,4.60
2023-01-13T22:04:46.583Z,4.60
2023-01-13T22:07:13.171Z,4.40
2023-01-13T22:09:39.733Z,4.40
2023-01-13T22:12:06.320Z,4.40
2023-01-13T22:14:33.269Z,4.40
2023-01-13T22:16:59.833Z,4.40
2023-01-13T22:19:26.371Z,4.30
2023-01-13T22:21:52.942Z,4.30
2023-01-13T22:24:19.483Z,4.40
2023-01-13T22:26:46.061Z,4.40
2023-01-13T22:29:12.631Z,4.40
2023-01-13T22:31:39.247Z,4.30
2023-01-13T22:34:05.817Z,4.40
2023-01-13T22:36:32.360Z,4.40
2023-01-13T22:38:58.909Z,4.40
2023-01-13T22:41:25.719Z,4.40
2023-01-13T22:43:52.355Z,4.40
2023-01-13T22:46:19.005Z,4.50
2023-01-13T22:48:45.605Z,4.50
2023-01-13T22:51:14.108Z,4.50
2023-01-13T22:53:41.850Z,4.50
2023-01-13T22:56:15.072Z,4.50
2023-01-13T22:58:41.604Z,4.40
2023-01-13T23:01:11.313Z,4.40
2023-01-13T23:03:38.229Z,4.30
2023-01-13T23:06:04.979Z,4.30
2023-01-13T23:08:33.624Z,4.30
2023-01-13T23:11:05.646Z,4.30
2023-01-13T23:13:32.470Z,4.40
2023-01-13T23:16:04.103Z,4.30
2023-01-13T23:18:31.326Z,4.30
2023-01-13T23:21:03.508Z,4.30
2023-01-13T23:23:30.778Z,4.30
2023-01-13T23:25:57.440Z,4.40
2023-01-13T23:28:24.084Z,4.40
2023-01-13T23:30:51.050Z,4.50
2023-01-13T23:33:18.223Z,4.50
2023-01-13T23:35:59.530Z,4.50
2023-01-13T23:38:26.778Z,4.60
2023-01-13T23:40:53.510Z,4.60
2023-01-13T23:43:20.319Z,4.60
2023-01-13T23:45:47.016Z,4.60
2023-01-13T23:48:13.906Z,4.60
2023-01-13T23:50:41.226Z,4.60
2023-01-13T23:53:08.343Z,4.60
2023-01-13T23:55:35.524Z,4.60
2023-01-13T23:58:02.191Z,4.60
